Time;durP1;ratioP1;P1;durP2;ratioP2;P2;SDS_P1;SDS_P2;PMS_P1;PMS_P2;Temp;Humidity;BMP_temperature;BMP_pressure;BME280_temperature;BME280_humidity;BME280_pressure;Samples;Min_cycle;Max_cycle;Signal;HPM_P1;HPM_P2
2021/11/11 00:00:30;;;;;;;52.10;33.00;;;;;;;9.01;54.11;95867.22;4991083;28;20026;-68
2021/11/11 00:02:57;;;;;;;75.85;40.33;;;;;;;9.02;53.96;95849.44;4991109;28;20038;-68
2021/11/11 00:05:23;;;;;;;65.60;38.05;;;;;;;8.93;54.21;95832.50;4991519;28;20100;-68
2021/11/11 00:07:49;;;;;;;75.85;38.67;;;;;;;8.94;53.66;95834.06;4991359;28;20026;-68
2021/11/11 00:10:16;;;;;;;61.05;34.22;;;;;;;8.96;53.79;95831.97;4990667;28;20029;-69
2021/11/11 00:12:42;;;;;;;63.95;36.42;;;;;;;8.98;53.70;95833.25;4986214;28;20030;-70
2021/11/11 00:15:11;;;;;;;72.47;39.75;;;;;;;8.93;53.52;95827.97;4991294;28;20096;-70
2021/11/11 00:17:37;;;;;;;59.28;34.70;;;;;;;8.85;53.55;95823.25;4991311;28;20053;-70
2021/11/11 00:20:05;;;;;;;60.03;34.40;;;;;;;8.88;53.87;95835.97;4990690;28;20476;-70
2021/11/11 00:22:31;;;;;;;60.00;33.45;;;;;;;8.82;53.73;95816.66;4990872;28;20070;-71
2021/11/11 00:24:57;;;;;;;67.40;34.75;;;;;;;8.87;53.80;95826.44;4990806;28;20054;-70
2021/11/11 00:27:22;;;;;;;70.82;36.38;;;;;;;8.84;53.75;95835.72;4985869;28;20039;-71
2021/11/11 00:29:47;;;;;;;64.30;32.35;;;;;;;8.76;54.18;95835.53;4994774;28;20023;-70
2021/11/11 00:32:13;;;;;;;97.45;34.17;;;;;;;8.74;54.43;95835.78;4990782;28;20026;-70
2021/11/11 00:34:39;;;;;;;110.18;44.13;;;;;;;8.71;54.35;95844.31;4989343;28;20026;-71
2021/11/11 00:37:05;;;;;;;62.83;33.92;;;;;;;8.75;54.33;95836.59;4990928;28;20077;-70
2021/11/11 00:39:30;;;;;;;72.78;36.80;;;;;;;8.78;54.06;95847.44;4990344;28;20034;-70
2021/11/11 00:41:56;;;;;;;68.10;35.72;;;;;;;8.75;54.04;95840.06;5001853;28;20030;-71
2021/11/11 00:44:22;;;;;;;63.53;33.80;;;;;;;8.77;54.15;95840.56;4989382;28;20038;-68
2021/11/11 00:46:48;;;;;;;93.20;44.03;;;;;;;8.75;53.65;95832.09;4990587;28;20022;-68
2021/11/11 00:49:14;;;;;;;87.45;40.92;;;;;;;8.74;54.05;95840.31;4990259;28;20096;-71
2021/11/11 00:51:40;;;;;;;61.90;33.70;;;;;;;8.75;53.82;95850.66;4990690;28;20097;-70
2021/11/11 00:54:06;;;;;;;68.07;35.35;;;;;;;8.75;53.44;95841.88;4989656;28;20030;-68
2021/11/11 00:56:33;;;;;;;71.57;36.72;;;;;;;8.71;53.82;95836.34;4989438;28;20502;-70
2021/11/11 00:59:00;;;;;;;60.00;31.70;;;;;;;8.67;53.30;95837.19;4985828;28;20029;-70
2021/11/11 01:01:28;;;;;;;75.90;38.58;;;;;;;8.66;53.59;95827.63;4990696;28;20030;-68
2021/11/11 01:03:56;;;;;;;80.63;38.13;;;;;;;8.67;53.68;95837.19;4990422;28;20038;-70
2021/11/11 01:06:21;;;;;;;79.22;38.90;;;;;;;8.62;53.54;95822.09;5005453;28;20033;-71
2021/11/11 01:08:48;;;;;;;74.25;36.50;;;;;;;8.61;53.60;95823.16;4990336;28;20027;-68
2021/11/11 01:11:14;;;;;;;87.03;38.58;;;;;;;8.53;53.70;95829.03;4989507;28;20841;-70
2021/11/11 01:13:40;;;;;;;68.70;35.08;;;;;;;8.53;53.81;95837.78;4985109;28;20029;-69
2021/11/11 01:16:06;;;;;;;51.70;30.77;;;;;;;8.41;53.73;95824.06;4990191;28;20258;-70
2021/11/11 01:18:31;;;;;;;62.47;32.83;;;;;;;7.98;55.16;95847.50;4988912;28;20029;-71
2021/11/11 01:20:58;;;;;;;55.83;30.40;;;;;;;8.16;55.06;95848.78;4989669;28;20023;-66
2021/11/11 01:23:24;;;;;;;66.80;34.13;;;;;;;8.11;55.29;95846.16;4989988;28;20109;-70
2021/11/11 01:25:49;;;;;;;60.05;31.52;;;;;;;8.24;54.92;95840.28;4989782;28;20058;-70
2021/11/11 01:28:15;;;;;;;83.50;39.35;;;;;;;8.30;54.31;95846.34;4985037;28;20042;-68
2021/11/11 01:30:44;;;;;;;60.08;30.95;;;;;;;8.32;54.39;95854.81;4984879;28;20022;-70
2021/11/11 01:33:11;;;;;;;72.13;36.20;;;;;;;8.32;54.37;95850.28;4989789;28;20030;-70
2021/11/11 01:35:37;;;;;;;71.57;35.35;;;;;;;8.32;53.95;95844.22;4988737;28;20030;-70
2021/11/11 01:38:02;;;;;;;56.95;29.77;;;;;;;8.32;54.05;95845.00;4990039;28;20081;-70
2021/11/11 01:40:28;;;;;;;87.57;39.58;;;;;;;8.24;53.78;95829.69;4989870;28;20032;-70
2021/11/11 01:42:56;;;;;;;68.95;35.85;;;;;;;8.22;53.79;95828.34;4984383;28;20616;-70
2021/11/11 01:45:33;;;;;;;86.22;40.15;;;;;;;8.27;53.92;95836.28;4985158;28;20022;-69
2021/11/11 01:47:59;;;;;;;63.42;33.17;;;;;;;8.25;53.78;95833.13;4989966;28;20021;-70
2021/11/11 01:50:27;;;;;;;71.97;35.65;;;;;;;8.18;53.56;95820.13;4988393;28;20019;-69
2021/11/11 01:52:53;;;;;;;69.57;35.13;;;;;;;8.28;54.08;95832.56;4989586;28;20022;-70
2021/11/11 01:55:19;;;;;;;60.22;31.08;;;;;;;8.21;53.91;95824.91;4989992;28;20034;-70
2021/11/11 01:57:45;;;;;;;57.90;31.95;;;;;;;8.15;54.01;95806.66;4986539;28;20019;-70
2021/11/11 02:00:16;;;;;;;58.55;31.27;;;;;;;8.18;54.08;95814.06;4991987;28;20346;-70
2021/11/11 02:02:42;;;;;;;70.78;36.45;;;;;;;8.21;53.74;95824.91;4989649;28;20037;-70
2021/11/11 02:05:09;;;;;;;83.25;37.28;;;;;;;8.14;53.90;95810.34;4992940;28;20030;-69
2021/11/11 02:07:34;;;;;;;63.80;33.55;;;;;;;8.06;53.55;95793.16;4993693;28;20126;-71
2021/11/11 02:10:00;;;;;;;62.63;31.08;;;;;;;8.06;53.71;95779.94;4993460;28;20101;-68
2021/11/11 02:12:29;;;;;;;49.03;27.67;;;;;;;8.06;53.90;95788.66;4988435;28;20034;-69
2021/11/11 02:14:55;;;;;;;63.97;32.38;;;;;;;8.04;53.72;95780.22;4977120;28;20105;-69
2021/11/11 02:17:30;;;;;;;39.80;25.67;;;;;;;8.08;53.73;95798.97;4992577;28;20045;-69
2021/11/11 02:20:03;;;;;;;59.00;32.08;;;;;;;8.06;54.08;95799.25;4993298;28;20554;-71
2021/11/11 02:22:28;;;;;;;44.85;26.15;;;;;;;8.06;53.79;95787.88;4993846;28;20093;-69
2021/11/11 02:24:54;;;;;;;67.68;34.35;;;;;;;8.08;54.11;95785.72;4993250;28;20042;-69
2021/11/11 02:27:19;;;;;;;57.80;30.38;;;;;;;8.09;53.77;95787.34;4988199;28;20027;-69
2021/11/11 02:29:45;;;;;;;52.80;29.10;;;;;;;8.07;53.92;95778.84;4992719;28;20109;-68
2021/11/11 02:32:10;;;;;;;65.80;33.67;;;;;;;7.99;53.84;95777.56;4993142;28;20435;-70
2021/11/11 02:34:35;;;;;;;66.75;34.88;;;;;;;8.06;53.74;95787.88;4992916;28;20435;-68
2021/11/11 02:37:04;;;;;;;67.82;34.72;;;;;;;8.10;53.47;95798.72;4993207;28;20141;-69
2021/11/11 02:39:35;;;;;;;61.95;32.40;;;;;;;8.06;53.80;95795.81;4992757;28;20162;-69
2021/11/11 02:42:01;;;;;;;56.97;30.92;;;;;;;8.06;53.99;95801.91;4988548;28;20027;-70
2021/11/11 02:44:28;;;;;;;53.97;29.73;;;;;;;7.74;53.97;95797.00;5002461;28;20031;-69
2021/11/11 02:46:56;;;;;;;53.55;30.15;;;;;;;7.66;54.84;95789.59;4992883;28;20026;-69
2021/11/11 02:49:21;;;;;;;69.40;34.72;;;;;;;7.79;54.61;95783.75;4992284;28;20036;-69
2021/11/11 02:51:46;;;;;;;67.35;34.22;;;;;;;7.82;54.56;95777.09;5007827;28;20117;-69
2021/11/11 02:54:12;;;;;;;45.67;26.77;;;;;;;7.82;54.61;95774.44;4991102;28;20041;-69
2021/11/11 02:56:37;;;;;;;52.97;27.95;;;;;;;7.13;55.53;95789.16;4991278;28;20511;-69
2021/11/11 02:59:03;;;;;;;50.10;27.45;;;;;;;7.27;56.50;95782.28;4983980;28;20019;-69
2021/11/11 03:01:28;;;;;;;49.35;27.92;;;;;;;6.77;56.94;95773.28;4992267;28;20023;-69
2021/11/11 03:03:54;;;;;;;46.42;25.70;;;;;;;6.20;59.82;95774.25;4992186;28;20034;-70
2021/11/11 03:06:19;;;;;;;45.22;26.23;;;;;;;5.79;61.00;95783.06;4992688;28;20030;-71
2021/11/11 03:08:44;;;;;;;43.15;25.27;;;;;;;5.54;61.27;95786.38;4992511;28;20037;-69
2021/11/11 03:11:10;;;;;;;41.47;24.00;;;;;;;5.43;62.19;95806.63;4991560;28;20025;-70
2021/11/11 03:13:36;;;;;;;45.17;27.05;;;;;;;6.13;60.22;95813.31;4986677;28;20022;-69
2021/11/11 03:16:01;;;;;;;43.28;26.00;;;;;;;6.06;59.91;95811.97;4987795;28;20509;-69
2021/11/11 03:18:27;;;;;;;50.08;29.08;;;;;;;6.37;59.48;95805.75;4992184;28;20026;-68
2021/11/11 03:20:52;;;;;;;48.28;28.90;;;;;;;6.32;58.93;95795.16;4991820;28;20058;-68
2021/11/11 03:23:18;;;;;;;49.97;28.77;;;;;;;6.56;58.58;95808.69;4990638;28;20495;-69
2021/11/11 03:25:43;;;;;;;50.95;27.85;;;;;;;6.76;58.10;95816.66;4991023;28;20030;-69
2021/11/11 03:28:09;;;;;;;49.80;28.35;;;;;;;6.67;58.59;95798.94;4986216;28;20031;-68
2021/11/11 03:30:36;;;;;;;47.60;27.10;;;;;;;6.07;60.70;95824.91;4990508;28;20045;-69
2021/11/11 03:33:03;;;;;;;48.78;27.60;;;;;;;6.60;59.05;95816.88;4991434;28;20113;-68
2021/11/11 03:35:28;;;;;;;49.03;26.83;;;;;;;6.23;59.76;95816.00;4991926;28;20027;-69
2021/11/11 03:37:57;;;;;;;48.72;28.20;;;;;;;6.52;58.67;95810.25;4991962;28;20408;-69
2021/11/11 03:40:25;;;;;;;49.88;27.70;;;;;;;6.12;60.16;95817.00;4991612;28;20463;-69
2021/11/11 03:42:53;;;;;;;45.38;26.02;;;;;;;5.56;61.80;95832.56;4988214;28;20054;-70
2021/11/11 03:45:19;;;;;;;49.85;27.42;;;;;;;5.77;61.84;95828.19;4993470;28;20026;-69
2021/11/11 03:47:47;;;;;;;64.43;32.47;;;;;;;6.65;59.25;95832.75;4991541;28;20046;-68
2021/11/11 03:50:13;;;;;;;52.63;29.05;;;;;;;6.45;58.85;95817.66;4991477;28;20022;-69
2021/11/11 03:52:39;;;;;;;45.97;26.35;;;;;;;5.79;60.43;95827.94;4991549;28;20045;-69
2021/11/11 03:55:07;;;;;;;51.15;28.20;;;;;;;5.98;59.79;95824.63;4990337;28;20042;-69
2021/11/11 03:57:32;;;;;;;54.95;29.33;;;;;;;6.34;59.67;95830.03;4990785;28;20025;-69
2021/11/11 03:59:58;;;;;;;56.00;29.40;;;;;;;6.69;58.24;95823.25;4982174;28;20026;-69
2021/11/11 04:02:25;;;;;;;61.50;29.98;;;;;;;6.84;58.24;95814.53;4991373;28;20031;-69
2021/11/11 04:04:52;;;;;;;50.55;26.77;;;;;;;6.99;57.04;95820.63;4991174;28;20113;-69
2021/11/11 04:07:18;;;;;;;39.42;24.05;;;;;;;6.95;56.63;95808.19;4991510;28;20030;-69
2021/11/11 04:09:43;;;;;;;38.90;23.02;;;;;;;7.26;57.28;95832.78;4991019;28;20525;-68
2021/11/11 04:12:08;;;;;;;39.40;23.20;;;;;;;7.13;56.52;95833.34;4990781;28;20023;-69
2021/11/11 04:14:34;;;;;;;50.20;24.00;;;;;;;5.69;59.76;95807.56;4986035;28;20065;-68
2021/11/11 04:16:59;;;;;;;39.55;23.13;;;;;;;5.95;60.61;95824.34;4991293;28;20034;-69
2021/11/11 04:19:26;;;;;;;93.32;27.25;;;;;;;6.07;60.84;95832.06;4990668;28;20084;-69
2021/11/11 04:21:51;;;;;;;95.97;28.67;;;;;;;6.02;60.35;95834.66;4991026;28;20399;-69
2021/11/11 04:24:17;;;;;;;46.88;25.77;;;;;;;6.19;60.58;95828.16;4990738;28;20035;-69
2021/11/11 04:27:05;;;;;;;39.03;24.15;;;;;;;6.94;58.76;95831.22;4990486;28;20034;-68
2021/11/11 04:29:33;;;;;;;34.72;23.48;;;;;;;7.32;58.40;95830.94;4982024;28;20595;-69
2021/11/11 04:32:01;;;;;;;38.53;23.77;;;;;;;7.53;58.60;95837.81;4990957;28;20497;-68
2021/11/11 04:34:32;;;;;;;40.38;25.63;;;;;;;7.72;57.85;95836.19;4990589;28;20042;-68
2021/11/11 04:47:47;;;;;;;45.08;27.00;;;;;;;8.06;54.95;95846.94;4990587;28;20129;-69
2021/11/11 05:03:44;;;;;;;32.08;21.70;;;;;;;7.84;54.77;95827.16;4990362;28;20041;-72
2021/11/11 05:06:10;;;;;;;30.23;21.05;;;;;;;8.06;54.57;95836.34;4990355;28;20048;-69
2021/11/11 05:08:36;;;;;;;37.92;22.48;;;;;;;8.18;53.92;95848.50;4990454;28;20022;-68
2021/11/11 05:11:01;;;;;;;26.80;19.20;;;;;;;8.24;53.80;95850.88;4990103;28;20022;-69
2021/11/11 05:13:27;;;;;;;28.23;18.63;;;;;;;8.27;53.91;95842.38;4984554;28;20038;-69
2021/11/11 05:15:53;;;;;;;31.23;21.77;;;;;;;8.42;53.20;95859.31;4985517;28;20037;-69
2021/11/11 05:18:18;;;;;;;27.20;20.55;;;;;;;8.39;53.28;95855.31;4989869;28;20034;-71
2021/11/11 05:20:43;;;;;;;36.58;22.85;;;;;;;8.37;53.25;95848.72;4989619;28;20030;-69
2021/11/11 05:23:09;;;;;;;23.88;19.42;;;;;;;8.34;53.04;95847.38;4990208;28;20095;-68
2021/11/11 05:25:35;;;;;;;29.80;18.23;;;;;;;8.28;53.20;95845.81;4990477;28;20515;-68
2021/11/11 05:28:02;;;;;;;27.70;19.38;;;;;;;8.22;52.78;95860.16;4985632;28;20030;-69
2021/11/11 05:30:28;;;;;;;23.30;16.83;;;;;;;8.20;52.89;95854.34;4984495;28;20022;-72
2021/11/11 05:32:54;;;;;;;21.27;17.88;;;;;;;8.14;52.94;95853.56;4989797;28;20092;-68
2021/11/11 05:35:20;;;;;;;24.95;16.55;;;;;;;8.11;52.71;95872.66;4990140;28;20481;-70
2021/11/11 05:37:46;;;;;;;26.10;17.90;;;;;;;8.03;53.20;95883.78;4990091;28;20041;-72
2021/11/11 05:40:14;;;;;;;28.38;20.13;;;;;;;7.99;52.93;95888.06;4993074;28;20026;-68
2021/11/11 05:42:40;;;;;;;21.52;16.63;;;;;;;7.89;53.41;95869.53;4992113;28;20034;-70
2021/11/11 05:45:07;;;;;;;25.05;17.25;;;;;;;7.81;53.59;95866.34;4986018;28;20038;-70
2021/11/11 05:47:33;;;;;;;20.13;16.42;;;;;;;7.88;52.99;95870.56;4993947;28;20341;-71
2021/11/11 05:49:58;;;;;;;21.33;16.30;;;;;;;7.81;52.94;95876.16;4993857;28;20030;-70
2021/11/11 05:52:24;;;;;;;15.75;14.10;;;;;;;7.83;53.44;95879.34;4993928;28;20046;-70
2021/11/11 05:54:51;;;;;;;18.30;15.48;;;;;;;7.87;53.49;95879.59;4990920;28;20137;-70
2021/11/11 05:57:17;;;;;;;16.98;14.38;;;;;;;7.82;52.92;95880.38;4977970;28;20380;-71
2021/11/11 05:59:42;;;;;;;16.98;14.00;;;;;;;7.87;53.11;95880.38;4986872;28;20026;-71
2021/11/11 06:02:12;;;;;;;21.48;16.20;;;;;;;7.81;53.07;95889.41;4990716;28;20069;-69
2021/11/11 06:04:39;;;;;;;22.58;16.98;;;;;;;6.96;55.18;95886.47;4993384;28;20034;-68
2021/11/11 06:07:05;;;;;;;20.20;15.18;;;;;;;7.18;55.53;95881.75;4993760;28;20109;-68
2021/11/11 06:09:31;;;;;;;19.38;15.25;;;;;;;7.50;54.96;95883.34;4993681;28;20101;-69
2021/11/11 06:11:56;;;;;;;17.30;15.23;;;;;;;7.35;54.71;95843.66;4993264;28;20101;-68
2021/11/11 06:14:22;;;;;;;20.02;16.60;;;;;;;7.47;54.11;95858.22;4988150;28;20026;-70
2021/11/11 06:16:48;;;;;;;23.40;16.75;;;;;;;7.63;54.36;95864.28;4988564;28;20025;-69
2021/11/11 06:19:14;;;;;;;24.30;17.67;;;;;;;7.66;54.46;95865.59;4992799;28;20110;-69
2021/11/11 06:21:41;;;;;;;17.92;15.57;;;;;;;7.69;54.70;95873.00;5008142;28;20026;-69
2021/11/11 06:24:06;;;;;;;32.55;21.13;;;;;;;7.81;54.19;95884.09;4993086;28;20022;-72
2021/11/11 06:26:32;;;;;;;35.13;18.08;;;;;;;7.86;53.94;95884.09;4993678;28;20030;-71
2021/11/11 06:28:58;;;;;;;23.52;15.88;;;;;;;7.90;53.79;95881.72;4987176;28;20106;-68
2021/11/11 06:31:24;;;;;;;26.73;17.17;;;;;;;7.62;54.02;95891.78;4988736;28;20037;-69
2021/11/11 06:33:50;;;;;;;22.30;17.65;;;;;;;7.45;55.22;95893.94;4993350;28;20034;-69
2021/11/11 06:36:16;;;;;;;21.33;16.42;;;;;;;7.41;55.79;95888.38;4993816;28;20037;-75
2021/11/11 06:38:42;;;;;;;31.45;20.17;;;;;;;7.53;55.46;95902.16;4994359;28;20480;-71
2021/11/11 06:41:07;;;;;;;29.02;17.40;;;;;;;7.45;55.03;95886.78;4992559;28;20034;-71
2021/11/11 06:43:33;;;;;;;22.13;16.70;;;;;;;7.43;55.25;95901.34;4987612;28;20101;-71
2021/11/11 06:45:59;;;;;;;27.52;17.05;;;;;;;7.58;54.65;95888.13;4992644;28;20030;-72
2021/11/11 06:48:25;;;;;;;22.42;16.75;;;;;;;7.80;55.04;95893.91;4993010;28;20038;-71
2021/11/11 06:50:50;;;;;;;20.73;15.82;;;;;;;7.84;54.17;95885.44;4990946;28;20077;-72
2021/11/11 06:53:18;;;;;;;24.08;16.35;;;;;;;7.84;54.04;95899.47;4991991;28;20552;-70
2021/11/11 06:55:44;;;;;;;17.17;14.70;;;;;;;7.81;54.34;95894.69;4992624;28;20018;-69
2021/11/11 06:58:12;;;;;;;29.05;19.05;;;;;;;8.05;53.72;95908.16;4990519;28;20496;-69
2021/11/11 07:00:38;;;;;;;21.63;15.70;;;;;;;8.13;53.82;95906.81;5002224;28;20014;-71
2021/11/11 07:03:05;;;;;;;17.88;13.40;;;;;;;8.22;54.04;95906.00;4992062;28;20388;-71
2021/11/11 07:05:31;;;;;;;25.52;17.88;;;;;;;8.27;53.69;95903.31;4992559;28;20108;-70
2021/11/11 07:07:57;;;;;;;19.55;15.07;;;;;;;8.29;53.52;95895.91;4992304;28;20034;-68
2021/11/11 07:10:24;;;;;;;18.55;14.88;;;;;;;8.37;53.39;95886.63;4992733;28;20022;-76
2021/11/11 07:12:50;;;;;;;18.35;14.25;;;;;;;8.52;53.22;95891.06;4990975;28;20081;-74
2021/11/11 07:15:17;;;;;;;27.08;17.58;;;;;;;8.55;52.61;95885.25;4988067;28;20046;-79
2021/11/11 07:17:42;;;;;;;16.20;14.48;;;;;;;8.63;52.59;95902.44;4992300;28;20019;-71
2021/11/11 07:20:11;;;;;;;24.92;17.27;;;;;;;8.70;52.41;95910.88;4994696;28;20383;-74
2021/11/11 07:22:39;;;;;;;21.27;17.08;;;;;;;8.70;52.54;95906.38;5013225;28;20037;-78
2021/11/11 07:25:06;;;;;;;25.00;18.00;;;;;;;8.72;52.37;95912.19;5027469;28;20424;-75
2021/11/11 07:27:33;;;;;;;22.05;16.55;;;;;;;8.81;52.20;95915.09;5008311;28;20640;-76
2021/11/11 07:29:59;;;;;;;18.00;12.25;;;;;;;8.83;52.29;95911.06;4988196;28;20019;-73
2021/11/11 07:32:25;;;;;;;13.80;12.40;;;;;;;8.79;52.53;95923.28;4991786;28;20030;-70
2021/11/11 07:34:50;;;;;;;15.52;12.90;;;;;;;8.46;53.53;95926.63;4991770;28;20162;-72
2021/11/11 07:37:15;;;;;;;14.63;12.52;;;;;;;8.64;53.06;95920.72;4992553;28;20376;-71
2021/11/11 07:39:42;;;;;;;17.13;15.10;;;;;;;8.96;53.41;95940.75;4991825;28;20026;-79
2021/11/11 07:42:09;;;;;;;19.40;14.48;;;;;;;9.03;52.94;95928.75;4991905;28;20855;-66
2021/11/11 07:44:34;;;;;;;15.98;12.93;;;;;;;9.05;52.88;95931.13;4990852;28;20084;-77
2021/11/11 07:47:00;;;;;;;17.13;13.63;;;;;;;9.25;52.47;95935.50;4973666;28;20117;-76
2021/11/11 07:49:25;;;;;;;16.08;13.82;;;;;;;9.38;52.39;95935.69;4992568;28;20101;-77
2021/11/11 07:51:50;;;;;;;13.20;11.88;;;;;;;9.43;52.53;95937.53;4993072;28;20023;-73
2021/11/11 07:54:16;;;;;;;18.40;12.00;;;;;;;9.41;52.11;95944.16;4991633;28;20081;-71
2021/11/11 07:56:43;;;;;;;19.92;13.68;;;;;;;9.60;52.08;95945.88;4992240;28;20518;-74
2021/11/11 07:59:09;;;;;;;12.32;11.10;;;;;;;9.63;52.36;95934.72;4991736;28;20419;-70
2021/11/11 08:01:34;;;;;;;13.18;10.55;;;;;;;9.83;51.87;95944.38;4986735;28;20025;-73
2021/11/11 08:04:00;;;;;;;11.80;10.70;;;;;;;9.73;52.20;95936.50;4991363;28;20027;-72
2021/11/11 08:06:26;;;;;;;14.30;10.85;;;;;;;9.72;52.15;95940.22;5006742;28;20026;-74
2021/11/11 08:08:51;;;;;;;15.68;12.52;;;;;;;9.98;52.34;95932.00;4991629;28;20026;-72
2021/11/11 08:11:17;;;;;;;13.75;11.98;;;;;;;10.19;52.38;95945.94;4992160;28;20026;-72
2021/11/11 08:13:42;;;;;;;13.50;11.98;;;;;;;10.27;52.07;95935.47;4989514;28;20190;-78
2021/11/11 08:16:08;;;;;;;9.93;9.00;;;;;;;10.42;51.39;95942.50;4986256;28;20411;-69
2021/11/11 08:18:33;;;;;;;11.85;10.52;;;;;;;10.51;51.19;95932.03;4991074;28;20186;-70
2021/11/11 08:20:59;;;;;;;11.05;8.85;;;;;;;10.64;51.39;95931.34;4990824;28;20166;-69
2021/11/11 08:23:25;;;;;;;11.00;9.90;;;;;;;10.65;50.90;95927.63;4990937;28;20035;-70
2021/11/11 08:25:51;;;;;;;13.68;11.95;;;;;;;10.80;50.87;95929.28;4991074;28;20027;-70
2021/11/11 08:28:19;;;;;;;10.60;9.52;;;;;;;10.76;50.32;95909.66;4990506;28;20109;-69
2021/11/11 08:30:46;;;;;;;12.40;10.05;;;;;;;10.94;51.15;95928.31;4985691;28;20022;-70
2021/11/11 08:33:13;;;;;;;10.52;9.50;;;;;;;11.00;50.07;95921.03;4990567;28;20027;-69
2021/11/11 08:35:38;;;;;;;10.80;9.05;;;;;;;11.13;50.41;95925.66;4990899;28;20030;-69
2021/11/11 08:38:04;;;;;;;8.93;8.05;;;;;;;11.12;50.43;95929.41;4990873;28;20026;-69
2021/11/11 08:40:31;;;;;;;9.10;7.57;;;;;;;11.15;50.56;95912.06;4990393;28;20110;-68
2021/11/11 08:42:59;;;;;;;10.90;7.88;;;;;;;10.97;51.65;95910.19;5004967;28;20428;-69
2021/11/11 08:45:27;;;;;;;10.52;8.13;;;;;;;11.34;50.87;95914.72;4985546;28;20128;-69
2021/11/11 08:47:53;;;;;;;8.70;7.90;;;;;;;10.64;51.42;95902.88;4990222;28;20022;-69
2021/11/11 08:50:19;;;;;;;8.93;8.23;;;;;;;9.46;55.92;95922.91;4989967;28;20037;-70
2021/11/11 08:52:48;;;;;;;8.60;7.80;;;;;;;9.22;57.66;95923.59;4990561;28;20030;-70
2021/11/11 08:55:17;;;;;;;9.35;8.25;;;;;;;10.14;55.53;95923.63;4990544;28;20046;-67
2021/11/11 08:57:43;;;;;;;10.75;7.75;;;;;;;9.61;57.09;95920.13;4990051;28;20507;-71
2021/11/11 09:00:14;;;;;;;14.98;9.90;;;;;;;9.37;58.46;95923.50;4977235;28;20019;-67
2021/11/11 09:02:40;;;;;;;11.45;8.73;;;;;;;10.23;56.19;95928.31;4990067;28;20049;-70
2021/11/11 09:05:06;;;;;;;10.98;9.38;;;;;;;10.12;56.17;95911.69;5005143;28;20026;-70
2021/11/11 09:07:32;;;;;;;10.90;9.80;;;;;;;10.59;54.98;95916.22;4990281;28;20795;-68
2021/11/11 09:09:57;;;;;;;12.35;10.60;;;;;;;11.31;53.47;95900.13;4989805;28;20019;-68
2021/11/11 09:12:24;;;;;;;15.93;11.00;;;;;;;11.31;53.75;95918.75;4989992;28;20032;-68
2021/11/11 09:14:50;;;;;;;12.23;10.85;;;;;;;11.70;52.74;95904.28;4986084;28;20066;-68
2021/11/11 09:17:15;;;;;;;15.77;12.50;;;;;;;11.28;53.26;95914.00;4987892;28;20105;-68
2021/11/11 09:19:40;;;;;;;21.75;11.68;;;;;;;11.25;53.76;95897.81;4988556;28;20455;-68
2021/11/11 09:22:06;;;;;;;14.75;11.50;;;;;;;11.90;52.95;95911.97;4990143;28;20184;-69
2021/11/11 09:24:31;;;;;;;14.13;11.52;;;;;;;12.16;51.90;95916.84;4989728;28;20033;-69
2021/11/11 09:26:57;;;;;;;15.27;12.95;;;;;;;12.39;51.31;95918.56;4989866;28;20105;-69
2021/11/11 09:29:23;;;;;;;13.38;12.00;;;;;;;12.41;51.02;95913.72;4984243;28;20045;-68
2021/11/11 09:31:49;;;;;;;22.15;13.48;;;;;;;12.73;50.90;95918.16;4993106;28;20026;-68
2021/11/11 09:34:15;;;;;;;17.58;14.93;;;;;;;13.02;50.49;95920.50;4984827;28;20137;-69
2021/11/11 09:36:40;;;;;;;22.13;14.63;;;;;;;13.09;49.62;95909.38;4970468;28;20534;-69
2021/11/11 09:39:06;;;;;;;18.70;14.07;;;;;;;13.26;49.60;95925.63;4969979;28;20532;-70
2021/11/11 09:41:33;;;;;;;19.85;14.20;;;;;;;13.41;49.40;95924.50;4970309;28;20038;-68
2021/11/11 09:44:01;;;;;;;14.65;12.63;;;;;;;13.57;48.99;95924.94;4979658;28;20043;-68
2021/11/11 09:46:26;;;;;;;14.93;12.85;;;;;;;13.70;48.73;95917.91;4984790;28;20025;-69
2021/11/11 09:48:52;;;;;;;16.15;12.43;;;;;;;13.55;48.47;95905.72;5004725;28;20129;-68
2021/11/11 09:51:21;;;;;;;15.15;13.60;;;;;;;13.50;48.70;95914.63;5004851;28;20464;-68
2021/11/11 09:53:55;;;;;;;13.45;12.02;;;;;;;13.11;49.52;95901.09;4989498;28;20030;-71
2021/11/11 09:59:04;;;;;;;15.23;13.63;;;;;;;13.43;49.17;95916.16;4984511;28;20058;-70
2021/11/11 10:01:30;;;;;;;16.58;12.55;;;;;;;12.53;51.12;95909.75;4981633;28;20022;-67
2021/11/11 10:03:55;;;;;;;17.73;13.02;;;;;;;13.08;50.59;95909.69;4989246;28;20034;-70
2021/11/11 10:06:26;;;;;;;13.50;12.27;;;;;;;13.73;49.34;95896.72;4989638;28;20095;-71
2021/11/11 10:08:53;;;;;;;15.05;13.10;;;;;;;14.12;48.37;95905.09;4989256;28;20266;-70
2021/11/11 10:11:32;;;;;;;13.65;12.25;;;;;;;13.50;48.54;95916.53;4989420;28;20023;-67
2021/11/11 10:14:07;;;;;;;19.55;12.13;;;;;;;13.15;49.71;95912.75;4984911;28;20031;-70
2021/11/11 10:16:40;;;;;;;17.90;12.50;;;;;;;13.55;49.26;95913.72;4981648;28;20027;-70
2021/11/11 10:19:06;;;;;;;15.70;11.90;;;;;;;14.09;48.22;95903.06;4984567;28;20110;-68
2021/11/11 10:24:24;;;;;;;16.00;13.45;;;;;;;14.78;47.46;95901.44;4969671;28;20041;-70
2021/11/11 10:30:30;;;;;;;12.32;11.07;;;;;;;14.24;47.01;95894.63;4977977;28;20035;-71
2021/11/11 10:33:06;;;;;;;13.73;11.55;;;;;;;14.61;46.85;95887.25;4987996;28;20054;-70
2021/11/11 10:35:34;;;;;;;12.13;10.88;;;;;;;15.00;46.67;95886.38;4973588;28;20023;-70
2021/11/11 10:38:12;;;;;;;14.77;13.38;;;;;;;15.22;46.31;95883.56;4973201;28;20045;-70
2021/11/11 10:40:44;;;;;;;18.48;12.35;;;;;;;15.24;45.80;95880.53;4987908;28;20034;-70
2021/11/11 10:43:13;;;;;;;13.88;10.80;;;;;;;15.28;45.79;95873.47;4974047;28;20477;-71
2021/11/11 10:45:42;;;;;;;15.75;11.73;;;;;;;15.55;45.66;95881.16;4986419;28;20030;-69
2021/11/11 10:48:11;;;;;;;12.75;11.48;;;;;;;15.44;45.35;95873.75;4989794;28;20041;-70
2021/11/11 10:50:49;;;;;;;13.55;11.45;;;;;;;15.49;45.21;95870.94;4991047;28;20031;-69
2021/11/11 10:53:20;;;;;;;11.43;10.40;;;;;;;15.68;44.51;95846.50;4992290;28;20022;-68
2021/11/11 10:55:50;;;;;;;17.77;11.48;;;;;;;15.65;44.94;95860.53;4989965;28;20026;-69
2021/11/11 10:58:18;;;;;;;16.15;12.38;;;;;;;15.90;44.55;95867.72;4990342;28;20034;-69
2021/11/11 11:00:54;;;;;;;14.52;10.65;;;;;;;15.77;44.68;95866.81;4989318;28;20022;-69
2021/11/11 11:03:37;;;;;;;12.30;11.05;;;;;;;16.06;44.15;95876.03;4988824;28;20030;-69
2021/11/11 11:06:08;;;;;;;12.90;11.32;;;;;;;16.25;44.08;95875.66;4992225;28;20034;-69
2021/11/11 11:08:55;;;;;;;12.90;11.07;;;;;;;16.39;44.03;95870.88;4988205;28;20515;-69
2021/11/11 11:11:20;;;;;;;11.35;10.15;;;;;;;16.45;43.58;95866.91;4988949;28;20481;-69
2021/11/11 11:13:50;;;;;;;12.60;11.20;;;;;;;15.85;44.85;95855.28;4991551;28;20109;-69
2021/11/11 11:16:17;;;;;;;14.63;11.27;;;;;;;16.17;44.40;95850.44;4985075;28;20014;-70
2021/11/11 11:19:08;;;;;;;13.68;11.32;;;;;;;15.59;45.12;95852.63;4986201;28;20030;-68
2021/11/11 11:21:41;;;;;;;14.20;10.82;;;;;;;15.18;46.24;95860.38;4990302;28;20401;-68
2021/11/11 11:24:19;;;;;;;15.65;11.52;;;;;;;15.03;46.37;95845.53;4989739;28;20023;-68
2021/11/11 11:26:44;;;;;;;11.48;10.35;;;;;;;15.65;45.46;95855.94;5010526;28;20022;-71
2021/11/11 11:29:17;;;;;;;13.45;10.75;;;;;;;15.36;45.92;95840.50;4996649;28;20510;-69
2021/11/11 11:31:54;;;;;;;15.80;11.57;;;;;;;15.51;45.69;95844.59;4993363;28;20029;-65
2021/11/11 11:34:25;;;;;;;16.70;11.18;;;;;;;15.84;45.24;95850.22;4991908;28;20026;-67
2021/11/11 11:36:52;;;;;;;15.85;11.27;;;;;;;16.25;44.51;95849.63;4991339;28;20030;-68
2021/11/11 11:39:22;;;;;;;21.85;10.38;;;;;;;15.48;45.34;95840.66;4990128;28;20101;-67
2021/11/11 11:41:48;;;;;;;12.63;10.32;;;;;;;15.33;45.39;95823.16;4991849;28;20109;-68
2021/11/11 11:44:25;;;;;;;14.65;11.45;;;;;;;15.49;44.67;95831.50;4987851;28;20560;-68
2021/11/11 11:47:07;;;;;;;14.93;11.48;;;;;;;16.14;43.54;95834.19;5008971;23;20503;-68
2021/11/11 11:49:34;;;;;;;20.48;12.48;;;;;;;16.31;43.56;95848.31;4972190;28;20089;-67
2021/11/11 11:52:01;;;;;;;13.68;11.60;;;;;;;16.30;43.07;95835.22;4973043;28;20031;-66
2021/11/11 11:57:06;;;;;;;17.75;11.98;;;;;;;16.61;42.17;95840.28;4971497;28;20034;-67
2021/11/11 11:59:38;;;;;;;16.23;11.68;;;;;;;15.70;44.16;95839.69;4986095;28;20029;-66